Time;durP1;ratioP1;P1;durP2;ratioP2;P2;SDS_P1;SDS_P2;PMS_P1;PMS_P2;Temp;Humidity;BMP_temperature;BMP_pressure;BME280_temperature;BME280_humidity;BME280_pressure;Samples;Min_cycle;Max_cycle;Signal;HPM_P1;HPM_P2
2022/09/18 00:01:32;;;;;;;8.40;1.80;;;11.30;99.90;;;;;;5054273;28;20202;-71
2022/09/18 00:04:01;;;;;;;6.32;1.80;;;11.20;99.90;;;;;;5062199;28;20200;-73
2022/09/18 00:06:30;;;;;;;7.15;1.50;;;11.10;99.90;;;;;;5059871;28;20204;-71
2022/09/18 00:08:59;;;;;;;11.75;1.92;;;11.10;99.90;;;;;;5060522;28;20237;-74
2022/09/18 00:11:28;;;;;;;8.00;1.80;;;11.10;99.90;;;;;;5057780;28;20537;-72
2022/09/18 00:13:55;;;;;;;3.63;1.52;;;11.00;99.90;;;;;;5058768;28;20263;-71
2022/09/18 00:16:24;;;;;;;3.28;1.50;;;11.10;99.90;;;;;;5051602;28;20202;-74
2022/09/18 00:18:53;;;;;;;13.30;2.50;;;11.00;99.90;;;;;;5058649;28;20301;-71
2022/09/18 00:21:23;;;;;;;7.15;1.88;;;11.00;99.90;;;;;;5053697;28;20229;-72
2022/09/18 00:23:51;;;;;;;11.00;3.92;;;11.00;99.90;;;;;;5051236;28;20230;-71
2022/09/18 00:26:24;;;;;;;7.00;1.73;;;11.00;99.90;;;;;;5055055;28;20664;-71
2022/09/18 00:28:52;;;;;;;9.13;2.55;;;11.00;99.90;;;;;;5055038;28;20281;-72
2022/09/18 00:31:20;;;;;;;11.13;1.65;;;10.90;99.90;;;;;;5048699;28;20241;-73
2022/09/18 00:33:48;;;;;;;8.23;2.05;;;10.90;99.90;;;;;;5057776;28;20254;-71
2022/09/18 00:36:18;;;;;;;10.40;2.17;;;10.90;99.90;;;;;;5050994;28;20230;-71
2022/09/18 00:38:45;;;;;;;13.95;3.45;;;10.90;99.90;;;;;;5044424;28;20242;-72
2022/09/18 00:41:16;;;;;;;16.08;2.17;;;10.90;99.90;;;;;;5056701;28;20232;-72
2022/09/18 00:43:44;;;;;;;44.97;3.92;;;10.90;99.90;;;;;;5045967;28;20303;-71
2022/09/18 00:46:23;;;;;;;7.65;1.70;;;10.90;99.90;;;;;;5048320;28;20238;-72
2022/09/18 00:49:03;;;;;;;7.30;3.40;;;10.80;99.90;;;;;;5047666;28;20662;-70
2022/09/18 00:51:33;;;;;;;12.32;1.95;;;10.60;99.90;;;;;;5051936;28;20235;-71
2022/09/18 00:54:13;;;;;;;4.38;2.00;;;10.60;99.90;;;;;;5055676;28;20709;-71
2022/09/18 00:56:41;;;;;;;6.43;2.72;;;10.50;99.90;;;;;;5049066;28;20312;-71
2022/09/18 00:59:11;;;;;;;7.00;2.03;;;10.50;99.90;;;;;;5046867;28;20200;-72
2022/09/18 01:01:39;;;;;;;13.60;2.38;;;10.40;99.90;;;;;;5054677;28;20215;-71
2022/09/18 01:04:10;;;;;;;9.73;2.28;;;10.40;99.90;;;;;;5052795;28;20210;-71
2022/09/18 01:06:48;;;;;;;5.40;1.80;;;10.40;99.90;;;;;;5056244;28;20234;-71
2022/09/18 01:09:21;;;;;;;7.10;2.10;;;10.50;99.90;;;;;;5053353;28;20246;-74
2022/09/18 01:11:54;;;;;;;11.73;1.90;;;10.50;99.90;;;;;;5049281;28;20235;-74
2022/09/18 01:14:30;;;;;;;10.63;2.15;;;10.60;99.90;;;;;;5050992;28;20205;-73
2022/09/18 01:17:05;;;;;;;9.70;1.90;;;10.70;99.90;;;;;;5050991;28;20292;-73
2022/09/18 01:19:52;;;;;;;7.85;1.92;;;10.70;99.90;;;;;;5058939;28;20241;-71
2022/09/18 01:22:37;;;;;;;10.13;2.33;;;10.60;99.90;;;;;;5051337;28;20224;-74
2022/09/18 01:25:23;;;;;;;1.98;1.42;;;10.70;99.90;;;;;;5055189;28;20191;-75
2022/09/18 01:28:09;;;;;;;11.90;3.55;;;10.60;99.90;;;;;;5044010;28;20265;-73
2022/09/18 01:30:41;;;;;;;16.70;3.08;;;10.70;99.90;;;;;;5061404;28;20211;-72
2022/09/18 01:33:22;;;;;;;10.60;2.72;;;10.70;99.90;;;;;;5066672;28;20191;-70
2022/09/18 01:35:54;;;;;;;12.73;1.52;;;10.70;99.90;;;;;;5064419;28;20269;-67
2022/09/18 01:38:25;;;;;;;8.20;1.83;;;10.70;99.90;;;;;;5063505;28;20219;-72
2022/09/18 01:40:56;;;;;;;10.57;2.17;;;10.60;99.90;;;;;;5071509;28;20196;-71
2022/09/18 01:43:28;;;;;;;6.60;1.58;;;10.60;99.90;;;;;;5060566;28;20238;-71
2022/09/18 01:46:00;;;;;;;8.52;2.30;;;10.50;99.90;;;;;;5062603;28;20227;-72
2022/09/18 01:48:31;;;;;;;13.80;3.13;;;10.50;99.90;;;;;;5058452;28;20258;-73
2022/09/18 01:51:03;;;;;;;5.80;1.75;;;10.50;99.90;;;;;;5059242;28;20278;-74
2022/09/18 01:53:35;;;;;;;5.38;1.83;;;10.50;99.90;;;;;;5060275;28;20199;-73
2022/09/18 01:56:07;;;;;;;9.30;2.70;;;10.50;99.90;;;;;;5053399;28;20219;-73
2022/09/18 01:58:37;;;;;;;10.52;2.53;;;10.40;99.90;;;;;;5057005;28;20255;-71
2022/09/18 02:01:11;;;;;;;7.57;2.30;;;10.40;99.90;;;;;;5062858;28;20223;-73
2022/09/18 02:03:44;;;;;;;7.32;1.90;;;10.50;99.90;;;;;;5063470;28;20221;-73
2022/09/18 02:06:16;;;;;;;6.85;1.98;;;10.50;99.90;;;;;;5064481;28;20208;-73
2022/09/18 02:08:46;;;;;;;10.65;2.42;;;10.40;99.90;;;;;;5067156;28;20232;-71
2022/09/18 02:11:16;;;;;;;5.78;1.58;;;10.40;99.90;;;;;;5056803;28;20580;-73
2022/09/18 02:13:50;;;;;;;9.98;1.42;;;10.40;99.90;;;;;;5050671;28;20218;-73
2022/09/18 02:16:23;;;;;;;10.52;2.95;;;10.40;99.90;;;;;;5054440;28;20239;-74
2022/09/18 02:18:56;;;;;;;5.35;1.30;;;10.40;99.90;;;;;;5054459;28;20211;-73
2022/09/18 02:21:27;;;;;;;4.85;1.30;;;10.40;99.90;;;;;;5052284;28;20206;-72
2022/09/18 02:23:57;;;;;;;5.65;1.70;;;10.40;99.90;;;;;;5052803;28;20224;-70
2022/09/18 02:26:26;;;;;;;9.75;1.83;;;10.30;99.90;;;;;;5055595;28;20210;-73
2022/09/18 02:28:56;;;;;;;8.88;1.52;;;10.30;99.90;;;;;;5041262;28;20293;-73
2022/09/18 02:31:23;;;;;;;5.88;1.95;;;10.40;99.90;;;;;;5048384;28;20203;-72
2022/09/18 02:33:51;;;;;;;7.20;1.55;;;10.40;99.90;;;;;;5059128;28;20270;-71
2022/09/18 02:36:44;;;;;;;5.65;1.48;;;10.40;99.90;;;;;;5044346;28;20287;-71
2022/09/18 02:39:23;;;;;;;3.83;1.45;;;10.40;99.90;;;;;;5053453;28;20205;-71
2022/09/18 02:42:02;;;;;;;5.50;2.13;;;10.40;99.90;;;;;;5057918;28;20203;-70
2022/09/18 02:44:38;;;;;;;6.65;1.40;;;10.40;99.90;;;;;;5053416;28;20311;-72
2022/09/18 02:47:12;;;;;;;10.70;2.70;;;10.40;99.90;;;;;;5061341;28;20398;-72
2022/09/18 02:49:50;;;;;;;5.25;1.52;;;10.40;99.90;;;;;;5053491;28;20327;-71
2022/09/18 02:52:24;;;;;;;7.13;2.13;;;10.30;99.90;;;;;;5066420;28;20196;-71
2022/09/18 02:54:57;;;;;;;10.48;1.80;;;10.30;99.90;;;;;;5056048;28;20199;-72
2022/09/18 02:57:30;;;;;;;6.00;1.80;;;10.30;99.90;;;;;;5056733;28;20220;-74
2022/09/18 03:00:01;;;;;;;7.25;1.70;;;10.20;99.90;;;;;;5047791;28;20285;-75
2022/09/18 03:02:28;;;;;;;6.60;1.98;;;10.20;99.90;;;;;;5052400;28;20293;-75
2022/09/18 03:04:55;;;;;;;9.40;2.95;;;10.20;99.90;;;;;;5048149;28;20206;-74
2022/09/18 03:07:22;;;;;;;10.02;4.38;;;10.10;99.90;;;;;;5049270;28;20662;-73
2022/09/18 03:09:49;;;;;;;6.97;1.30;;;10.10;99.90;;;;;;5048283;28;20350;-72
2022/09/18 03:12:17;;;;;;;10.20;2.97;;;10.10;99.90;;;;;;5057907;28;20197;-72
2022/09/18 03:14:43;;;;;;;13.93;2.33;;;10.10;99.90;;;;;;5053144;28;20227;-74
2022/09/18 03:17:12;;;;;;;12.77;2.25;;;10.10;99.90;;;;;;5046492;28;20702;-72
2022/09/18 03:19:39;;;;;;;8.73;1.85;;;10.10;99.90;;;;;;5048143;28;20508;-72
2022/09/18 03:22:06;;;;;;;8.93;1.95;;;10.00;99.90;;;;;;5057827;28;20198;-74
2022/09/18 03:24:32;;;;;;;9.25;2.65;;;10.00;99.90;;;;;;5056458;28;20312;-75
2022/09/18 03:26:59;;;;;;;6.20;1.50;;;9.90;99.90;;;;;;5063116;28;20262;-73
2022/09/18 03:29:26;;;;;;;4.82;2.17;;;9.90;99.90;;;;;;5063349;28;20199;-76
2022/09/18 03:31:53;;;;;;;7.38;2.35;;;9.90;99.90;;;;;;5051763;28;20632;-72
2022/09/18 03:34:22;;;;;;;5.68;1.73;;;9.90;99.90;;;;;;5055541;28;20198;-75
2022/09/18 03:36:49;;;;;;;12.98;2.00;;;9.90;99.90;;;;;;5048591;28;20259;-71
2022/09/18 03:39:15;;;;;;;10.52;3.22;;;9.90;99.90;;;;;;5056482;28;20208;-73
2022/09/18 03:41:42;;;;;;;7.90;1.45;;;9.80;99.90;;;;;;5050836;28;20200;-73
2022/09/18 03:44:10;;;;;;;12.73;3.58;;;9.90;99.90;;;;;;5059364;28;20318;-75
2022/09/18 03:46:37;;;;;;;18.50;3.50;;;9.80;99.90;;;;;;5055073;28;20661;-73
2022/09/18 03:49:05;;;;;;;5.80;1.15;;;9.80;99.90;;;;;;5050839;28;20224;-74
2022/09/18 03:51:33;;;;;;;13.32;2.15;;;9.70;99.90;;;;;;5056309;28;20231;-72
2022/09/18 03:54:02;;;;;;;7.63;1.42;;;9.80;99.90;;;;;;5045794;28;20283;-73
2022/09/18 03:56:30;;;;;;;6.85;2.08;;;9.70;99.90;;;;;;5056377;28;20290;-74
2022/09/18 03:58:56;;;;;;;5.95;2.08;;;9.70;99.90;;;;;;5053835;28;20208;-75
2022/09/18 04:01:23;;;;;;;8.65;1.88;;;9.70;99.90;;;;;;5041987;28;20295;-75
2022/09/18 04:03:50;;;;;;;8.02;1.60;;;9.70;99.90;;;;;;5055335;28;20239;-74
2022/09/18 04:06:17;;;;;;;6.32;2.15;;;9.80;99.90;;;;;;5055289;28;20283;-71
2022/09/18 04:08:45;;;;;;;16.83;1.98;;;9.90;99.90;;;;;;5059330;28;20306;-71
2022/09/18 04:11:12;;;;;;;8.07;1.70;;;10.00;99.90;;;;;;5052968;28;20205;-73
2022/09/18 04:13:39;;;;;;;8.15;2.13;;;10.10;99.90;;;;;;5051642;28;20238;-72
2022/09/18 04:16:07;;;;;;;7.32;1.90;;;10.20;99.90;;;;;;5053815;28;20200;-73
2022/09/18 04:18:34;;;;;;;11.65;2.03;;;10.30;99.90;;;;;;5057576;28;20326;-73
2022/09/18 04:21:02;;;;;;;9.60;2.30;;;10.20;99.90;;;;;;5053982;28;20311;-74
2022/09/18 04:23:28;;;;;;;4.80;1.00;;;10.20;99.90;;;;;;5049988;28;20253;-73
2022/09/18 04:25:57;;;;;;;10.38;2.15;;;10.10;99.90;;;;;;5054544;28;20255;-72
2022/09/18 04:28:24;;;;;;;6.80;2.15;;;10.10;99.90;;;;;;5053027;28;20394;-71
2022/09/18 04:30:51;;;;;;;9.60;1.65;;;10.10;99.90;;;;;;5059441;28;20234;-72
2022/09/18 04:33:17;;;;;;;5.05;1.67;;;10.00;99.90;;;;;;5055292;28;20224;-72
2022/09/18 04:35:44;;;;;;;7.82;1.90;;;10.00;99.90;;;;;;5050886;28;20197;-72
2022/09/18 04:38:11;;;;;;;7.43;2.95;;;10.00;99.90;;;;;;5050389;28;20267;-72
2022/09/18 04:40:38;;;;;;;12.32;1.70;;;10.00;99.90;;;;;;5057321;28;20279;-72
2022/09/18 04:43:09;;;;;;;7.97;2.10;;;9.90;99.90;;;;;;5055221;28;20210;-72
2022/09/18 04:45:36;;;;;;;7.00;1.60;;;9.90;99.90;;;;;;5054426;28;20239;-72
2022/09/18 04:48:03;;;;;;;4.75;1.25;;;9.90;99.90;;;;;;5054554;28;20753;-71
2022/09/18 04:50:30;;;;;;;5.95;1.63;;;9.90;99.90;;;;;;5057109;28;20271;-72
2022/09/18 04:52:57;;;;;;;9.10;2.03;;;9.90;99.90;;;;;;5052864;28;20230;-74
2022/09/18 04:55:25;;;;;;;6.35;2.10;;;10.00;99.90;;;;;;5055536;28;20227;-72
2022/09/18 04:57:52;;;;;;;6.32;1.30;;;10.10;99.90;;;;;;5048884;28;20220;-72
2022/09/18 05:00:20;;;;;;;7.13;1.50;;;10.10;99.90;;;;;;5054786;28;20734;-73
2022/09/18 05:02:47;;;;;;;8.80;2.65;;;10.20;99.90;;;;;;5047990;28;20203;-74
2022/09/18 05:05:14;;;;;;;7.22;2.00;;;10.10;99.90;;;;;;5044552;28;20320;-74
2022/09/18 05:07:41;;;;;;;3.78;1.50;;;10.10;99.90;;;;;;5052725;28;20224;-73
2022/09/18 05:10:10;;;;;;;8.52;1.80;;;10.10;99.90;;;;;;5047200;28;20592;-73
2022/09/18 05:12:39;;;;;;;8.02;2.42;;;9.90;99.90;;;;;;5050994;28;20204;-69
2022/09/18 05:15:06;;;;;;;7.18;1.55;;;9.90;99.90;;;;;;5068212;28;20206;-72
2022/09/18 05:17:35;;;;;;;7.20;2.17;;;9.90;99.90;;;;;;5053693;28;20224;-72
2022/09/18 05:20:02;;;;;;;9.57;1.80;;;9.90;99.90;;;;;;5057136;28;20274;-75
2022/09/18 05:22:29;;;;;;;16.60;2.97;;;9.80;99.90;;;;;;5061193;28;20238;-71
2022/09/18 05:24:56;;;;;;;7.35;1.30;;;9.90;99.90;;;;;;5053953;28;20244;-70
2022/09/18 05:27:23;;;;;;;8.95;2.30;;;9.80;99.90;;;;;;5049527;28;20306;-74
2022/09/18 05:29:50;;;;;;;5.88;2.13;;;9.80;99.90;;;;;;5040708;28;20192;-74
2022/09/18 05:32:19;;;;;;;12.60;1.92;;;9.90;99.90;;;;;;5056549;28;20196;-72
2022/09/18 05:34:48;;;;;;;8.63;2.00;;;9.90;99.90;;;;;;5056669;28;20219;-72
2022/09/18 05:37:16;;;;;;;7.50;1.70;;;9.90;99.90;;;;;;5064824;28;20274;-69
2022/09/18 05:39:42;;;;;;;10.07;4.35;;;9.90;99.90;;;;;;5065119;28;20203;-72
2022/09/18 05:42:09;;;;;;;13.13;2.97;;;10.00;99.90;;;;;;5068028;28;20672;-75
2022/09/18 05:44:36;;;;;;;7.57;1.67;;;10.10;99.90;;;;;;5057797;28;20721;-72
2022/09/18 05:47:04;;;;;;;10.82;3.00;;;10.10;99.90;;;;;;5053430;28;20602;-72
2022/09/18 05:49:30;;;;;;;7.13;1.20;;;10.20;99.90;;;;;;5052034;28;20195;-73
2022/09/18 05:51:59;;;;;;;10.10;2.13;;;10.30;99.90;;;;;;5038383;28;20782;-74
2022/09/18 05:54:26;;;;;;;5.07;1.70;;;10.50;99.90;;;;;;5051763;28;20202;-74
2022/09/18 05:56:54;;;;;;;11.35;2.10;;;10.50;99.90;;;;;;5048197;28;20233;-73
2022/09/18 05:59:21;;;;;;;4.65;1.80;;;10.50;99.90;;;;;;5052191;28;20263;-71
2022/09/18 06:01:48;;;;;;;7.28;2.10;;;10.60;99.90;;;;;;5053968;28;20205;-72
2022/09/18 06:04:15;;;;;;;5.95;1.63;;;10.70;99.90;;;;;;5049901;28;20217;-72
2022/09/18 06:06:42;;;;;;;7.28;2.70;;;11.30;99.90;;;;;;5058666;28;20287;-74
2022/09/18 06:09:10;;;;;;;4.22;1.40;;;11.90;99.90;;;;;;5055388;28;20234;-74
2022/09/18 06:11:37;;;;;;;11.85;1.70;;;12.50;99.90;;;;;;5064161;28;20210;-74
2022/09/18 06:14:04;;;;;;;10.32;2.00;;;13.10;99.90;;;;;;5059693;28;20428;-72
2022/09/18 06:16:31;;;;;;;5.30;1.60;;;13.60;99.90;;;;;;5057784;28;20282;-74
2022/09/18 06:18:58;;;;;;;6.30;1.88;;;13.80;99.90;;;;;;5057592;28;20282;-70
2022/09/18 06:21:25;;;;;;;3.90;1.50;;;13.50;99.90;;;;;;5054889;28;20585;-71
2022/09/18 06:23:51;;;;;;;9.90;2.45;;;13.20;99.90;;;;;;5050389;28;20226;-70
2022/09/18 06:26:20;;;;;;;5.45;1.70;;;12.90;99.90;;;;;;5049755;28;20202;-74
2022/09/18 06:28:48;;;;;;;8.32;3.30;;;12.50;99.90;;;;;;5044359;28;20221;-73
2022/09/18 06:31:15;;;;;;;5.38;1.40;;;12.40;99.90;;;;;;5052078;28;20624;-73
2022/09/18 06:33:42;;;;;;;6.25;2.65;;;12.20;99.90;;;;;;5056713;28;20682;-73
2022/09/18 06:36:12;;;;;;;7.53;1.92;;;12.10;99.90;;;;;;5047393;28;20712;-73
2022/09/18 06:38:39;;;;;;;6.40;2.15;;;12.00;99.90;;;;;;5051695;28;20347;-72
2022/09/18 06:41:07;;;;;;;10.18;2.22;;;12.00;99.90;;;;;;5055186;28;20204;-73
2022/09/18 06:43:36;;;;;;;25.48;4.65;;;11.90;99.90;;;;;;5054868;28;20205;-72
2022/09/18 06:46:03;;;;;;;4.90;2.00;;;12.00;99.90;;;;;;5061228;28;20287;-75
2022/09/18 06:48:30;;;;;;;6.13;1.88;;;12.00;99.90;;;;;;5063208;28;20577;-74
2022/09/18 06:50:58;;;;;;;9.07;2.60;;;12.10;99.90;;;;;;5066474;28;20205;-73
2022/09/18 06:53:26;;;;;;;5.90;2.80;;;12.20;99.90;;;;;;5063679;28;20201;-73
2022/09/18 06:55:53;;;;;;;5.13;1.80;;;12.30;99.90;;;;;;5067338;28;20649;-73
2022/09/18 06:58:20;;;;;;;4.07;1.33;;;12.60;99.90;;;;;;5069820;28;20301;-72
2022/09/18 07:00:55;;;;;;;5.82;1.50;;;13.40;99.90;;;;;;5079655;28;20316;-72
2022/09/18 07:03:21;;;;;;;3.83;1.65;;;14.00;99.90;;;;;;5063456;28;20289;-71
2022/09/18 07:05:48;;;;;;;4.45;1.48;;;14.10;99.90;;;;;;5055173;28;20303;-72
2022/09/18 07:08:20;;;;;;;7.82;2.22;;;14.70;99.90;;;;;;5064468;28;20611;-76
2022/09/18 07:10:47;;;;;;;7.68;2.95;;;15.60;99.90;;;;;;5051869;28;20206;-75
2022/09/18 07:13:14;;;;;;;8.73;1.87;;;16.60;99.90;;;;;;5055411;28;20297;-74
2022/09/18 07:15:41;;;;;;;6.20;1.50;;;16.90;99.90;;;;;;5066098;28;20449;-71
2022/09/18 07:18:10;;;;;;;6.85;1.98;;;16.70;99.90;;;;;;5046794;28;20260;-73
2022/09/18 07:20:37;;;;;;;6.60;2.22;;;16.20;99.90;;;;;;5052377;28;20236;-75
2022/09/18 07:23:04;;;;;;;7.22;2.65;;;15.70;99.90;;;;;;5050033;28;20206;-77
2022/09/18 07:25:33;;;;;;;5.68;2.20;;;15.30;99.90;;;;;;5051136;28;20216;-77
2022/09/18 07:28:06;;;;;;;6.53;2.35;;;14.80;99.90;;;;;;5045977;28;20223;-76
2022/09/18 07:30:33;;;;;;;7.00;1.95;;;14.40;99.90;;;;;;5051990;28;20247;-74
2022/09/18 07:33:02;;;;;;;5.03;1.67;;;14.10;99.90;;;;;;5057729;28;20291;-73
2022/09/18 07:35:30;;;;;;;5.85;1.67;;;14.00;99.90;;;;;;5061985;28;20196;-71
2022/09/18 07:38:06;;;;;;;11.35;3.25;;;14.10;99.90;;;;;;5048954;28;20314;-71
2022/09/18 07:40:34;;;;;;;6.53;1.38;;;14.20;99.90;;;;;;5049974;28;20201;-71
2022/09/18 07:43:02;;;;;;;6.22;1.50;;;14.40;99.90;;;;;;5059966;28;20235;-73
2022/09/18 07:45:31;;;;;;;9.63;1.73;;;14.40;99.90;;;;;;5054500;28;20579;-73
2022/09/18 07:48:00;;;;;;;6.30;1.58;;;14.40;99.90;;;;;;5054550;28;20721;-73
2022/09/18 07:50:29;;;;;;;6.05;1.80;;;14.60;99.90;;;;;;5055382;28;20269;-76
2022/09/18 07:53:02;;;;;;;8.05;1.20;;;15.10;99.90;;;;;;5063270;28;20207;-71
2022/09/18 07:55:35;;;;;;;2.40;1.70;;;15.80;99.90;;;;;;5066759;28;20792;-74
2022/09/18 08:01:32;;;;;;;9.32;1.50;;;16.00;99.90;;;;;;5103244;27;20523;-70
2022/09/18 08:04:08;;;;;;;7.90;1.93;;;16.60;99.90;;;;;;5096969;28;20205;-70
2022/09/18 08:06:42;;;;;;;4.87;1.23;;;17.10;99.90;;;;;;5094776;28;20450;-76
2022/09/18 08:09:15;;;;;;;4.80;1.10;;;18.20;99.90;;;;;;5078086;28;20436;-70
2022/09/18 08:11:46;;;;;;;7.27;1.40;;;19.70;99.90;;;;;;5075733;28;20497;-69
2022/09/18 08:14:15;;;;;;;4.57;1.30;;;20.50;99.10;;;;;;5076339;28;20482;-71
2022/09/18 08:16:43;;;;;;;4.83;1.77;;;21.10;96.70;;;;;;5075580;28;20487;-71
2022/09/18 08:19:12;;;;;;;8.37;2.20;;;20.90;96.70;;;;;;5080705;28;20984;-76
2022/09/18 08:21:40;;;;;;;5.10;1.67;;;19.80;98.50;;;;;;5079601;28;20441;-72
2022/09/18 08:24:10;;;;;;;4.73;1.40;;;19.00;99.90;;;;;;5083051;28;20463;-75
2022/09/18 08:26:37;;;;;;;9.40;1.50;;;17.90;99.90;;;;;;5079982;28;21005;-72
2022/09/18 08:29:06;;;;;;;4.35;1.60;;;17.10;99.90;;;;;;5081254;28;20492;-73
2022/09/18 08:35:07;;;;;;;3.50;1.40;;;15.90;99.90;;;;;;5077039;28;20237;-73
2022/09/18 08:37:34;;;;;;;8.35;2.05;;;15.70;99.90;;;;;;5069952;28;20313;-71
2022/09/18 08:40:02;;;;;;;7.47;2.42;;;15.40;99.90;;;;;;5068813;28;20230;-73
2022/09/18 08:42:39;;;;;;;8.55;1.50;;;16.10;99.90;;;;;;5068536;28;20695;-68
2022/09/18 08:45:21;;;;;;;5.37;1.33;;;16.40;99.90;;;;;;5049066;28;20304;-71
2022/09/18 08:47:52;;;;;;;4.17;1.70;;;16.90;99.90;;;;;;5067289;28;20508;-72
2022/09/18 08:50:24;;;;;;;7.10;2.67;;;18.10;99.90;;;;;;5073965;28;20449;-68
2022/09/18 08:52:57;;;;;;;8.20;1.30;;;19.60;99.90;;;;;;5077302;28;20460;-73
2022/09/18 08:55:32;;;;;;;4.20;1.10;;;20.60;98.80;;;;;;5073235;28;20765;-74
2022/09/18 08:58:03;;;;;;;7.97;3.53;;;21.70;96.30;;;;;;5071996;28;20490;-70
2022/09/18 09:00:34;;;;;;;6.87;2.37;;;22.70;93.50;;;;;;5068049;28;20576;-73
2022/09/18 09:03:10;;;;;;;2.80;1.77;;;22.50;92.00;;;;;;5066478;28;20473;-72
2022/09/18 09:05:45;;;;;;;2.30;1.10;;;22.30;91.90;;;;;;5065848;28;20514;-73
2022/09/18 09:08:51;;;;;;;6.60;1.40;;;21.80;92.30;;;;;;5049189;28;20474;-74
2022/09/18 09:11:29;;;;;;;8.00;1.40;;;19.80;93.50;;;;;;5059881;28;20488;-74
2022/09/18 09:14:22;;;;;;;5.10;1.43;;;19.00;97.80;;;;;;5037693;28;20531;-71
2022/09/18 09:16:55;;;;;;;3.83;1.83;;;19.40;97.60;;;;;;5051604;28;20475;-77
2022/09/18 09:19:30;;;;;;;6.00;1.63;;;20.10;96.70;;;;;;5055340;28;20926;-70
2022/09/18 09:22:06;;;;;;;6.17;1.60;;;19.40;95.90;;;;;;5051137;28;20599;-74
2022/09/18 09:24:35;;;;;;;7.90;1.47;;;19.00;97.90;;;;;;5037473;28;20503;-75
2022/09/18 09:27:13;;;;;;;4.60;1.10;;;18.80;97.90;;;;;;5054178;28;20491;-72
2022/09/18 09:29:43;;;;;;;3.13;1.40;;;19.30;98.00;;;;;;5050560;28;20542;-72
2022/09/18 09:32:24;;;;;;;4.97;1.40;;;20.60;96.50;;;;;;5054016;28;21019;-71
2022/09/18 09:34:55;;;;;;;2.33;1.23;;;21.30;93.90;;;;;;5052799;28;20476;-72
2022/09/18 09:37:31;;;;;;;2.40;1.10;;;22.30;93.20;;;;;;5049798;28;20474;-72
2022/09/18 09:40:04;;;;;;;8.03;2.20;;;22.60;91.30;;;;;;5029443;28;20587;-71
2022/09/18 09:42:39;;;;;;;9.20;2.03;;;21.00;91.30;;;;;;5053756;28;20599;-71
2022/09/18 09:45:13;;;;;;;6.03;2.87;;;20.30;93.20;;;;;;5058800;28;20453;-72
2022/09/18 09:47:45;;;;;;;6.47;2.30;;;18.70;96.20;;;;;;5052032;28;20472;-72
2022/09/18 09:50:32;;;;;;;3.83;1.00;;;18.20;98.40;;;;;;5053102;28;20453;-71
2022/09/18 09:53:06;;;;;;;3.67;1.37;;;18.30;99.60;;;;;;5053643;28;20463;-72
2022/09/18 09:55:38;;;;;;;5.90;1.57;;;19.10;97.30;;;;;;5054074;28;20959;-69
2022/09/18 09:58:15;;;;;;;11.07;1.93;;;19.20;96.80;;;;;;5049929;28;20552;-69
2022/09/18 10:00:48;;;;;;;4.93;1.37;;;18.10;97.10;;;;;;5032731;28;20489;-70
2022/09/18 10:03:39;;;;;;;9.87;1.93;;;17.50;99.60;;;;;;5035074;28;20471;-72
2022/09/18 10:06:19;;;;;;;5.90;1.55;;;17.00;99.90;;;;;;5053837;28;20520;-72
2022/09/18 10:08:54;;;;;;;6.43;2.00;;;16.50;99.90;;;;;;5056382;28;20322;-70
2022/09/18 10:11:22;;;;;;;7.75;2.45;;;16.10;99.90;;;;;;5051371;28;20218;-68
2022/09/18 10:13:54;;;;;;;7.18;1.92;;;15.40;99.90;;;;;;5053198;28;20204;-70
2022/09/18 10:16:26;;;;;;;5.78;2.05;;;14.90;99.90;;;;;;5050340;28;20208;-69
2022/09/18 10:18:53;;;;;;;9.10;2.90;;;14.60;99.90;;;;;;5049589;28;20211;-72
2022/09/18 10:21:22;;;;;;;9.52;3.58;;;14.20;99.90;;;;;;5050364;28;20603;-68
2022/09/18 10:23:56;;;;;;;3.70;2.20;;;13.90;99.90;;;;;;5050605;28;20209;-73
2022/09/18 10:26:28;;;;;;;6.63;2.22;;;13.60;99.90;;;;;;5034635;28;20656;-71
2022/09/18 10:28:55;;;;;;;6.10;1.80;;;13.30;99.90;;;;;;5051210;28;20206;-71
2022/09/18 10:31:22;;;;;;;14.52;2.20;;;12.90;99.90;;;;;;5052031;28;20230;-72
2022/09/18 10:33:52;;;;;;;6.70;2.13;;;12.50;99.90;;;;;;5053238;28;20205;-72
2022/09/18 10:36:23;;;;;;;7.25;2.10;;;12.40;99.90;;;;;;5052710;28;20208;-72
2022/09/18 10:38:52;;;;;;;13.00;2.58;;;12.20;99.90;;;;;;5051593;28;20205;-72
2022/09/18 10:41:25;;;;;;;6.57;2.17;;;12.00;99.90;;;;;;5054668;28;20328;-72
2022/09/18 10:44:00;;;;;;;4.28;1.90;;;11.90;99.90;;;;;;5058090;28;20208;-72
2022/09/18 10:46:30;;;;;;;6.72;2.83;;;11.90;99.90;;;;;;5060724;28;20581;-72
2022/09/18 10:49:01;;;;;;;5.95;2.15;;;12.00;99.90;;;;;;5055086;28;20207;-71
2022/09/18 10:51:28;;;;;;;6.55;2.20;;;12.20;99.90;;;;;;5052764;28;20328;-74
2022/09/18 10:54:13;;;;;;;12.48;3.50;;;12.30;99.90;;;;;;5052236;28;20209;-74
2022/09/18 10:56:40;;;;;;;9.38;3.25;;;12.40;99.90;;;;;;5037176;28;20786;-74
2022/09/18 10:59:30;;;;;;;8.32;2.78;;;12.30;99.90;;;;;;5050574;28;20304;-71
2022/09/18 11:01:57;;;;;;;9.38;3.60;;;12.40;99.90;;;;;;5054897;28;20258;-70
2022/09/18 11:04:26;;;;;;;7.45;2.67;;;12.60;99.90;;;;;;5052595;28;20208;-74
2022/09/18 11:06:53;;;;;;;5.65;2.65;;;12.50;99.90;;;;;;5051073;28;20235;-71
2022/09/18 11:09:29;;;;;;;15.75;3.60;;;12.70;99.90;;;;;;5051541;28;20226;-73
2022/09/18 11:11:56;;;;;;;6.35;2.70;;;13.00;99.90;;;;;;5052864;28;20211;-72
2022/09/18 11:14:26;;;;;;;7.70;4.68;;;13.60;99.90;;;;;;5053022;28;20196;-72
2022/09/18 11:16:57;;;;;;;7.65;2.30;;;14.00;99.90;;;;;;5064901;28;20226;-72
2022/09/18 11:19:28;;;;;;;4.20;3.15;;;14.60;99.90;;;;;;5060340;28;20199;-70
2022/09/18 11:21:58;;;;;;;6.15;2.00;;;15.10;99.90;;;;;;5060618;28;20211;-70
2022/09/18 11:24:31;;;;;;;3.25;2.10;;;15.50;99.90;;;;;;5058773;28;20206;-75
2022/09/18 11:26:59;;;;;;;6.57;1.77;;;15.70;99.90;;;;;;5062581;28;20226;-69
2022/09/18 11:29:31;;;;;;;5.15;1.42;;;16.10;99.90;;;;;;5061305;28;20232;-71
2022/09/18 11:32:03;;;;;;;2.65;1.42;;;16.30;99.90;;;;;;5072482;28;20243;-70
2022/09/18 11:34:33;;;;;;;8.48;2.40;;;16.40;99.90;;;;;;5064019;28;20572;-70
2022/09/18 11:37:02;;;;;;;3.08;1.85;;;16.30;99.90;;;;;;5057810;28;20265;-74
2022/09/18 11:39:36;;;;;;;7.30;2.65;;;16.20;99.90;;;;;;5065249;28;20242;-74
2022/09/18 11:42:09;;;;;;;4.50;1.50;;;16.20;99.90;;;;;;5055377;28;20248;-73
2022/09/18 11:44:36;;;;;;;2.47;1.25;;;16.50;99.90;;;;;;5056053;28;20265;-72
2022/09/18 11:47:27;;;;;;;4.95;1.30;;;16.90;99.90;;;;;;5055580;28;20233;-69
2022/09/18 11:50:03;;;;;;;4.40;2.07;;;17.10;99.90;;;;;;5055644;28;20576;-72
2022/09/18 11:52:33;;;;;;;2.43;1.40;;;17.30;99.90;;;;;;5057689;28;20440;-72
2022/09/18 11:55:06;;;;;;;4.73;2.23;;;17.30;99.90;;;;;;5061574;28;20516;-70
2022/09/18 11:57:38;;;;;;;3.27;1.60;;;17.60;99.90;;;;;;5045666;28;20545;-74
2022/09/18 12:00:11;;;;;;;5.67;1.47;;;17.80;99.90;;;;;;5054948;28;20537;-71
2022/09/18 12:02:44;;;;;;;2.33;1.00;;;17.90;99.90;;;;;;5068149;28;20473;-71
2022/09/18 12:05:19;;;;;;;3.27;1.33;;;17.90;99.90;;;;;;5060625;28;20450;-72
2022/09/18 12:07:56;;;;;;;5.30;1.80;;;17.90;99.90;;;;;;5061445;28;20477;-71
2022/09/18 12:10:33;;;;;;;4.53;1.23;;;17.80;99.90;;;;;;5047301;28;20502;-73
2022/09/18 12:13:13;;;;;;;4.07;1.37;;;17.70;99.90;;;;;;5037967;28;20775;-74
2022/09/18 12:15:46;;;;;;;6.10;2.20;;;17.00;99.90;;;;;;5042387;28;20475;-74
2022/09/18 12:18:17;;;;;;;2.25;1.30;;;16.40;99.90;;;;;;5062864;28;20416;-76
2022/09/18 12:20:48;;;;;;;6.85;1.83;;;15.70;99.90;;;;;;5060694;28;20222;-75
2022/09/18 12:23:21;;;;;;;7.18;1.63;;;15.20;99.90;;;;;;5064866;28;20572;-72
2022/09/18 12:26:04;;;;;;;5.18;2.03;;;14.90;99.90;;;;;;5063865;28;20245;-74
2022/09/18 12:28:41;;;;;;;3.20;1.65;;;14.50;99.90;;;;;;5048884;28;20326;-72
2022/09/18 12:31:23;;;;;;;5.25;2.25;;;14.60;99.90;;;;;;5046908;28;20621;-72
2022/09/18 12:33:58;;;;;;;6.15;2.10;;;14.60;99.90;;;;;;5046425;28;20207;-68
2022/09/18 12:36:47;;;;;;;10.15;3.55;;;14.80;99.90;;;;;;5043994;28;20366;-68
2022/09/18 12:39:29;;;;;;;6.13;2.10;;;14.50;99.90;;;;;;5067188;28;20593;-72
2022/09/18 12:42:11;;;;;;;8.35;2.33;;;14.40;99.90;;;;;;5064380;28;20585;-71
2022/09/18 12:45:20;;;;;;;4.78;1.30;;;14.30;99.90;;;;;;5057482;28;20258;-74
2022/09/18 12:48:00;;;;;;;6.50;1.58;;;14.30;99.90;;;;;;5062095;28;20218;-77
2022/09/18 12:50:49;;;;;;;6.00;2.35;;;14.20;99.90;;;;;;5062086;28;20344;-71
2022/09/18 12:53:28;;;;;;;5.28;2.00;;;14.10;99.90;;;;;;5063925;28;20293;-73
2022/09/18 12:56:20;;;;;;;7.93;1.80;;;14.00;99.90;;;;;;5062767;28;20246;-72
2022/09/18 12:59:17;;;;;;;3.95;1.65;;;13.90;99.90;;;;;;5052815;28;20234;-73
2022/09/18 13:01:49;;;;;;;4.97;1.52;;;13.80;99.90;;;;;;5064501;28;20575;-72
2022/09/18 13:04:23;;;;;;;11.65;3.05;;;13.80;99.90;;;;;;5066103;28;20677;-70
2022/09/18 13:06:56;;;;;;;8.52;1.90;;;13.70;99.90;;;;;;5069129;28;20229;-69
2022/09/18 13:09:29;;;;;;;6.75;1.92;;;13.70;99.90;;;;;;5066174;28;20646;-73
2022/09/18 13:12:02;;;;;;;8.60;2.88;;;13.80;99.90;;;;;;5058654;28;20218;-72
2022/09/18 13:14:38;;;;;;;8.32;2.22;;;13.90;99.90;;;;;;5065906;28;20237;-72